sensor_id;sensor_type;location;lat;lon;timestamp;temperature;humidity
30399;DHT22;17195;50.838;7.214;2022-12-18T00:01:18;-7.10;99.90
30399;DHT22;17195;50.838;7.214;2022-12-18T00:03:44;-7.00;99.90
30399;DHT22;17195;50.838;7.214;2022-12-18T00:06:10;-7.00;99.90
30399;DHT22;17195;50.838;7.214;2022-12-18T00:08:37;-6.90;99.90
30399;DHT22;17195;50.838;7.214;2022-12-18T00:11:11;-6.80;99.90
30399;DHT22;17195;50.838;7.214;2022-12-18T00:13:37;-6.80;99.90
30399;DHT22;17195;50.838;7.214;2022-12-18T00:16:04;-6.70;99.90
30399;DHT22;17195;50.838;7.214;2022-12-18T00:18:31;-6.70;99.90
30399;DHT22;17195;50.838;7.214;2022-12-18T00:20:59;-6.60;99.90
30399;DHT22;17195;50.838;7.214;2022-12-18T00:23:25;-6.60;99.90
30399;DHT22;17195;50.838;7.214;2022-12-18T00:25:51;-6.50;99.90
30399;DHT22;17195;50.838;7.214;2022-12-18T00:28:17;-6.50;99.90
30399;DHT22;17195;50.838;7.214;2022-12-18T00:30:42;-6.60;99.90
30399;DHT22;17195;50.838;7.214;2022-12-18T00:33:08;-6.60;99.90
30399;DHT22;17195;50.838;7.214;2022-12-18T00:35:33;-6.60;99.90
30399;DHT22;17195;50.838;7.214;2022-12-18T00:37:59;-6.60;99.90
30399;DHT22;17195;50.838;7.214;2022-12-18T00:40:24;-6.60;99.90
30399;DHT22;17195;50.838;7.214;2022-12-18T00:42:50;-6.70;99.90
30399;DHT22;17195;50.838;7.214;2022-12-18T00:45:27;-6.60;99.90
30399;DHT22;17195;50.838;7.214;2022-12-18T00:47:53;-6.60;99.90
30399;DHT22;17195;50.838;7.214;2022-12-18T00:50:18;-6.60;99.90
30399;DHT22;17195;50.838;7.214;2022-12-18T00:52:44;-6.50;99.90
30399;DHT22;17195;50.838;7.214;2022-12-18T00:55:10;-6.60;99.90
30399;DHT22;17195;50.838;7.214;2022-12-18T00:57:36;-6.60;99.90
30399;DHT22;17195;50.838;7.214;2022-12-18T01:00:04;-6.60;99.90
30399;DHT22;17195;50.838;7.214;2022-12-18T01:02:30;-6.70;99.90
30399;DHT22;17195;50.838;7.214;2022-12-18T01:04:55;-6.70;99.90
30399;DHT22;17195;50.838;7.214;2022-12-18T01:07:21;-6.80;99.90
30399;DHT22;17195;50.838;7.214;2022-12-18T01:09:46;-6.80;99.90
30399;DHT22;17195;50.838;7.214;2022-12-18T01:12:12;-6.90;99.90
30399;DHT22;17195;50.838;7.214;2022-12-18T01:14:37;-6.90;99.90
30399;DHT22;17195;50.838;7.214;2022-12-18T01:17:03;-6.90;99.90
30399;DHT22;17195;50.838;7.214;2022-12-18T01:19:29;-7.00;99.90
30399;DHT22;17195;50.838;7.214;2022-12-18T01:21:55;-7.10;99.90
30399;DHT22;17195;50.838;7.214;2022-12-18T01:24:21;-7.10;99.90
30399;DHT22;17195;50.838;7.214;2022-12-18T01:26:47;-7.20;99.90
30399;DHT22;17195;50.838;7.214;2022-12-18T01:29:12;-7.20;99.90
30399;DHT22;17195;50.838;7.214;2022-12-18T01:31:38;-7.30;99.90
30399;DHT22;17195;50.838;7.214;2022-12-18T01:34:04;-7.30;99.90
30399;DHT22;17195;50.838;7.214;2022-12-18T01:36:33;-7.30;99.90
30399;DHT22;17195;50.838;7.214;2022-12-18T01:39:00;-7.30;99.90
30399;DHT22;17195;50.838;7.214;2022-12-18T01:41:29;-7.40;99.90
30399;DHT22;17195;50.838;7.214;2022-12-18T01:47:34;-7.40;99.90
30399;DHT22;17195;50.838;7.214;2022-12-18T01:52:42;-7.40;99.90
30399;DHT22;17195;50.838;7.214;2022-12-18T01:55:13;-7.50;99.90
30399;DHT22;17195;50.838;7.214;2022-12-18T01:57:40;-7.50;99.90
30399;DHT22;17195;50.838;7.214;2022-12-18T02:00:20;-7.60;99.90
30399;DHT22;17195;50.838;7.214;2022-12-18T02:02:47;-7.50;99.90
30399;DHT22;17195;50.838;7.214;2022-12-18T02:05:16;-7.60;99.90
30399;DHT22;17195;50.838;7.214;2022-12-18T02:10:30;-7.70;99.90
30399;DHT22;17195;50.838;7.214;2022-12-18T02:13:19;-7.70;99.90
30399;DHT22;17195;50.838;7.214;2022-12-18T02:18:42;-7.70;99.90
30399;DHT22;17195;50.838;7.214;2022-12-18T02:21:38;-7.80;99.90
30399;DHT22;17195;50.838;7.214;2022-12-18T02:26:47;-7.80;99.90
30399;DHT22;17195;50.838;7.214;2022-12-18T02:29:18;-7.80;99.90
30399;DHT22;17195;50.838;7.214;2022-12-18T02:31:51;-7.80;99.90
30399;DHT22;17195;50.838;7.214;2022-12-18T02:34:18;-7.90;99.90
30399;DHT22;17195;50.838;7.214;2022-12-18T02:36:46;-7.90;99.90
30399;DHT22;17195;50.838;7.214;2022-12-18T02:39:14;-7.90;99.90
30399;DHT22;17195;50.838;7.214;2022-12-18T02:41:41;-8.00;99.90
30399;DHT22;17195;50.838;7.214;2022-12-18T02:44:12;-7.90;99.90
30399;DHT22;17195;50.838;7.214;2022-12-18T02:46:41;-8.00;99.90
30399;DHT22;17195;50.838;7.214;2022-12-18T02:57:50;-8.00;99.90
30399;DHT22;17195;50.838;7.214;2022-12-18T03:00:32;-8.00;99.90
30399;DHT22;17195;50.838;7.214;2022-12-18T03:03:19;-8.00;99.90
30399;DHT22;17195;50.838;7.214;2022-12-18T03:05:56;-8.00;99.90
30399;DHT22;17195;50.838;7.214;2022-12-18T03:08:37;-8.10;99.90
30399;DHT22;17195;50.838;7.214;2022-12-18T03:11:07;-8.10;99.90
30399;DHT22;17195;50.838;7.214;2022-12-18T03:16:11;-8.10;99.90
30399;DHT22;17195;50.838;7.214;2022-12-18T03:18:51;-8.10;99.90
30399;DHT22;17195;50.838;7.214;2022-12-18T03:21:22;-8.10;99.90
30399;DHT22;17195;50.838;7.214;2022-12-18T03:23:51;-8.10;99.90
30399;DHT22;17195;50.838;7.214;2022-12-18T03:26:20;-8.10;99.90
30399;DHT22;17195;50.838;7.214;2022-12-18T03:28:52;-8.10;99.90
30399;DHT22;17195;50.838;7.214;2022-12-18T03:31:20;-8.10;99.90
30399;DHT22;17195;50.838;7.214;2022-12-18T03:36:17;-8.00;99.90
30399;DHT22;17195;50.838;7.214;2022-12-18T03:38:43;-8.10;99.90
30399;DHT22;17195;50.838;7.214;2022-12-18T03:46:53;-8.20;99.90
30399;DHT22;17195;50.838;7.214;2022-12-18T03:52:13;-8.20;99.90
30399;DHT22;17195;50.838;7.214;2022-12-18T03:54:42;-8.10;99.90
30399;DHT22;17195;50.838;7.214;2022-12-18T03:57:15;-8.10;99.90
30399;DHT22;17195;50.838;7.214;2022-12-18T03:59:43;-8.10;99.90
30399;DHT22;17195;50.838;7.214;2022-12-18T04:02:09;-8.10;99.90
30399;DHT22;17195;50.838;7.214;2022-12-18T04:04:38;-8.10;99.90
30399;DHT22;17195;50.838;7.214;2022-12-18T04:07:05;-8.10;99.90
30399;DHT22;17195;50.838;7.214;2022-12-18T04:09:33;-8.20;99.90
30399;DHT22;17195;50.838;7.214;2022-12-18T04:11:59;-8.10;99.90
30399;DHT22;17195;50.838;7.214;2022-12-18T04:14:24;-8.10;99.90
30399;DHT22;17195;50.838;7.214;2022-12-18T04:16:50;-8.10;99.90
30399;DHT22;17195;50.838;7.214;2022-12-18T04:19:15;-8.10;99.90
30399;DHT22;17195;50.838;7.214;2022-12-18T04:21:41;-8.10;99.90
30399;DHT22;17195;50.838;7.214;2022-12-18T04:24:07;-8.10;99.90
30399;DHT22;17195;50.838;7.214;2022-12-18T04:26:32;-8.00;99.90
30399;DHT22;17195;50.838;7.214;2022-12-18T04:28:58;-8.00;99.90
30399;DHT22;17195;50.838;7.214;2022-12-18T04:31:23;-7.90;99.90
30399;DHT22;17195;50.838;7.214;2022-12-18T04:33:49;-7.90;99.90
30399;DHT22;17195;50.838;7.214;2022-12-18T04:36:15;-7.90;99.90
30399;DHT22;17195;50.838;7.214;2022-12-18T04:38:40;-7.90;99.90
30399;DHT22;17195;50.838;7.214;2022-12-18T04:41:06;-7.90;99.90
30399;DHT22;17195;50.838;7.214;2022-12-18T04:43:31;-7.90;99.90
30399;DHT22;17195;50.838;7.214;2022-12-18T04:46:08;-8.00;99.90
30399;DHT22;17195;50.838;7.214;2022-12-18T04:48:34;-8.00;99.90
30399;DHT22;17195;50.838;7.214;2022-12-18T04:51:00;-8.10;99.90
30399;DHT22;17195;50.838;7.214;2022-12-18T04:53:26;-8.00;99.90
30399;DHT22;17195;50.838;7.214;2022-12-18T04:56:03;-8.00;99.90
30399;DHT22;17195;50.838;7.214;2022-12-18T04:58:28;-8.00;99.90
30399;DHT22;17195;50.838;7.214;2022-12-18T05:00:54;-8.10;99.90
30399;DHT22;17195;50.838;7.214;2022-12-18T05:03:20;-8.10;99.90
30399;DHT22;17195;50.838;7.214;2022-12-18T05:05:48;-8.10;99.90
30399;DHT22;17195;50.838;7.214;2022-12-18T05:08:14;-8.10;99.90
30399;DHT22;17195;50.838;7.214;2022-12-18T05:10:39;-8.10;99.90
30399;DHT22;17195;50.838;7.214;2022-12-18T05:13:05;-8.10;99.90
30399;DHT22;17195;50.838;7.214;2022-12-18T05:15:32;-8.20;99.90
30399;DHT22;17195;50.838;7.214;2022-12-18T05:17:58;-8.10;99.90
30399;DHT22;17195;50.838;7.214;2022-12-18T05:20:24;-8.10;99.90
30399;DHT22;17195;50.838;7.214;2022-12-18T05:22:51;-8.10;99.90
30399;DHT22;17195;50.838;7.214;2022-12-18T05:25:17;-8.10;99.90
30399;DHT22;17195;50.838;7.214;2022-12-18T05:27:43;-8.10;99.90
30399;DHT22;17195;50.838;7.214;2022-12-18T05:30:09;-8.10;99.90
30399;DHT22;17195;50.838;7.214;2022-12-18T05:32:34;-8.10;99.90
30399;DHT22;17195;50.838;7.214;2022-12-18T05:35:00;-8.20;99.90
30399;DHT22;17195;50.838;7.214;2022-12-18T05:37:25;-8.20;99.90
30399;DHT22;17195;50.838;7.214;2022-12-18T05:39:51;-8.10;99.90
30399;DHT22;17195;50.838;7.214;2022-12-18T05:42:17;-8.10;99.90
30399;DHT22;17195;50.838;7.214;2022-12-18T05:44:43;-8.10;99.90
30399;DHT22;17195;50.838;7.214;2022-12-18T05:47:08;-8.00;99.90
30399;DHT22;17195;50.838;7.214;2022-12-18T05:49:34;-8.10;99.90
30399;DHT22;17195;50.838;7.214;2022-12-18T05:51:59;-8.10;99.90
30399;DHT22;17195;50.838;7.214;2022-12-18T05:54:27;-7.90;99.90
30399;DHT22;17195;50.838;7.214;2022-12-18T05:56:53;-7.90;99.90
30399;DHT22;17195;50.838;7.214;2022-12-18T05:59:19;-7.80;99.90
30399;DHT22;17195;50.838;7.214;2022-12-18T06:01:45;-7.80;99.90
30399;DHT22;17195;50.838;7.214;2022-12-18T06:04:10;-7.80;99.90
30399;DHT22;17195;50.838;7.214;2022-12-18T06:06:36;-7.90;99.90
30399;DHT22;17195;50.838;7.214;2022-12-18T06:09:02;-7.90;99.90
30399;DHT22;17195;50.838;7.214;2022-12-18T06:11:33;-7.80;99.90
30399;DHT22;17195;50.838;7.214;2022-12-18T06:13:59;-7.80;99.90
30399;DHT22;17195;50.838;7.214;2022-12-18T06:16:26;-7.80;99.90
30399;DHT22;17195;50.838;7.214;2022-12-18T06:18:51;-7.80;99.90
30399;DHT22;17195;50.838;7.214;2022-12-18T06:21:17;-7.80;99.90
30399;DHT22;17195;50.838;7.214;2022-12-18T06:23:43;-7.70;99.90
30399;DHT22;17195;50.838;7.214;2022-12-18T06:26:13;-7.60;99.90
30399;DHT22;17195;50.838;7.214;2022-12-18T06:28:39;-7.60;99.90
30399;DHT22;17195;50.838;7.214;2022-12-18T06:31:06;-7.60;99.90
30399;DHT22;17195;50.838;7.214;2022-12-18T06:33:32;-7.60;99.90
30399;DHT22;17195;50.838;7.214;2022-12-18T06:38:31;-7.70;99.90
30399;DHT22;17195;50.838;7.214;2022-12-18T06:40:57;-7.70;99.90
30399;DHT22;17195;50.838;7.214;2022-12-18T06:43:23;-7.80;99.90
30399;DHT22;17195;50.838;7.214;2022-12-18T06:45:48;-7.80;99.90
30399;DHT22;17195;50.838;7.214;2022-12-18T06:48:21;-7.80;99.90
30399;DHT22;17195;50.838;7.214;2022-12-18T06:50:47;-7.90;99.90
30399;DHT22;17195;50.838;7.214;2022-12-18T06:53:13;-7.90;99.90
30399;DHT22;17195;50.838;7.214;2022-12-18T06:55:38;-7.80;99.90
30399;DHT22;17195;50.838;7.214;2022-12-18T06:58:04;-7.90;99.90
30399;DHT22;17195;50.838;7.214;2022-12-18T07:00:29;-7.90;99.90
30399;DHT22;17195;50.838;7.214;2022-12-18T07:02:55;-7.80;99.90
30399;DHT22;17195;50.838;7.214;2022-12-18T07:05:20;-7.80;99.90
30399;DHT22;17195;50.838;7.214;2022-12-18T07:07:46;-7.90;99.90
30399;DHT22;17195;50.838;7.214;2022-12-18T07:10:11;-7.90;99.90
30399;DHT22;17195;50.838;7.214;2022-12-18T07:12:37;-8.00;99.90
30399;DHT22;17195;50.838;7.214;2022-12-18T07:15:03;-8.10;99.90
30399;DHT22;17195;50.838;7.214;2022-12-18T07:17:29;-8.10;99.90
30399;DHT22;17195;50.838;7.214;2022-12-18T07:19:55;-8.10;99.90
30399;DHT22;17195;50.838;7.214;2022-12-18T07:22:20;-8.20;99.90
30399;DHT22;17195;50.838;7.214;2022-12-18T07:24:46;-8.20;99.90
30399;DHT22;17195;50.838;7.214;2022-12-18T07:27:12;-8.20;99.90
30399;DHT22;17195;50.838;7.214;2022-12-18T07:29:37;-8.20;99.90
30399;DHT22;17195;50.838;7.214;2022-12-18T07:32:03;-8.10;99.90
30399;DHT22;17195;50.838;7.214;2022-12-18T07:34:28;-8.10;99.90
30399;DHT22;17195;50.838;7.214;2022-12-18T07:36:54;-8.10;99.90
30399;DHT22;17195;50.838;7.214;2022-12-18T07:39:20;-8.00;99.90
30399;DHT22;17195;50.838;7.214;2022-12-18T07:41:45;-8.00;99.90
30399;DHT22;17195;50.838;7.214;2022-12-18T07:44:31;-7.90;99.90
30399;DHT22;17195;50.838;7.214;2022-12-18T07:46:56;-7.90;99.90
30399;DHT22;17195;50.838;7.214;2022-12-18T07:49:22;-7.90;99.90
30399;DHT22;17195;50.838;7.214;2022-12-18T07:51:47;-7.80;99.90
30399;DHT22;17195;50.838;7.214;2022-12-18T07:54:14;-7.80;99.90
30399;DHT22;17195;50.838;7.214;2022-12-18T07:56:40;-7.70;99.90
30399;DHT22;17195;50.838;7.214;2022-12-18T07:59:05;-7.60;99.90
30399;DHT22;17195;50.838;7.214;2022-12-18T08:01:31;-7.60;99.90
30399;DHT22;17195;50.838;7.214;2022-12-18T08:03:57;-7.60;99.90
30399;DHT22;17195;50.838;7.214;2022-12-18T08:06:23;-7.60;99.90
30399;DHT22;17195;50.838;7.214;2022-12-18T08:08:53;-7.60;99.90
30399;DHT22;17195;50.838;7.214;2022-12-18T08:11:19;-7.50;99.90
30399;DHT22;17195;50.838;7.214;2022-12-18T08:13:45;-7.40;99.90
30399;DHT22;17195;50.838;7.214;2022-12-18T08:16:10;-7.50;99.90
30399;DHT22;17195;50.838;7.214;2022-12-18T08:18:37;-7.40;99.90
30399;DHT22;17195;50.838;7.214;2022-12-18T08:21:13;-7.30;99.90
30399;DHT22;17195;50.838;7.214;2022-12-18T08:23:40;-7.30;99.90
30399;DHT22;17195;50.838;7.214;2022-12-18T08:26:06;-7.40;99.90
30399;DHT22;17195;50.838;7.214;2022-12-18T08:28:31;-7.30;99.90
30399;DHT22;17195;50.838;7.214;2022-12-18T08:30:57;-7.30;99.90
30399;DHT22;17195;50.838;7.214;2022-12-18T08:33:23;-7.30;99.90
30399;DHT22;17195;50.838;7.214;2022-12-18T08:35:49;-7.20;99.90
30399;DHT22;17195;50.838;7.214;2022-12-18T08:38:14;-7.10;99.90
30399;DHT22;17195;50.838;7.214;2022-12-18T08:40:40;-6.90;99.90
30399;DHT22;17195;50.838;7.214;2022-12-18T08:43:07;-6.80;99.90
30399;DHT22;17195;50.838;7.214;2022-12-18T08:45:51;-6.60;99.90
30399;DHT22;17195;50.838;7.214;2022-12-18T08:48:17;-6.40;99.90
30399;DHT22;17195;50.838;7.214;2022-12-18T08:50:43;-6.40;99.90
30399;DHT22;17195;50.838;7.214;2022-12-18T08:53:08;-6.20;99.90
30399;DHT22;17195;50.838;7.214;2022-12-18T08:55:34;-6.10;99.90
30399;DHT22;17195;50.838;7.214;2022-12-18T08:58:00;-5.90;99.90
30399;DHT22;17195;50.838;7.214;2022-12-18T09:00:25;-5.70;99.90
30399;DHT22;17195;50.838;7.214;2022-12-18T09:02:51;-5.60;99.90
30399;DHT22;17195;50.838;7.214;2022-12-18T09:05:16;-5.50;99.90
30399;DHT22;17195;50.838;7.214;2022-12-18T09:07:42;-5.30;99.90
30399;DHT22;17195;50.838;7.214;2022-12-18T09:10:08;-5.00;99.90
30399;DHT22;17195;50.838;7.214;2022-12-18T09:12:33;-4.80;99.90
30399;DHT22;17195;50.838;7.214;2022-12-18T09:14:59;-4.60;99.90
30399;DHT22;17195;50.838;7.214;2022-12-18T09:17:24;-4.30;99.90
30399;DHT22;17195;50.838;7.214;2022-12-18T09:19:50;-4.00;99.90
30399;DHT22;17195;50.838;7.214;2022-12-18T09:22:16;-3.70;99.90
30399;DHT22;17195;50.838;7.214;2022-12-18T09:24:41;-3.50;99.90
30399;DHT22;17195;50.838;7.214;2022-12-18T09:27:07;-3.20;99.90
30399;DHT22;17195;50.838;7.214;2022-12-18T09:29:32;-3.00;99.90
30399;DHT22;17195;50.838;7.214;2022-12-18T09:31:58;-2.80;99.90
30399;DHT22;17195;50.838;7.214;2022-12-18T09:34:24;-2.60;99.90
30399;DHT22;17195;50.838;7.214;2022-12-18T09:36:50;-2.40;99.90
30399;DHT22;17195;50.838;7.214;2022-12-18T09:39:16;-2.20;99.90
30399;DHT22;17195;50.838;7.214;2022-12-18T09:41:46;-2.10;99.90
30399;DHT22;17195;50.838;7.214;2022-12-18T09:44:21;-1.90;99.90
30399;DHT22;17195;50.838;7.214;2022-12-18T09:49:23;-1.60;99.90
30399;DHT22;17195;50.838;7.214;2022-12-18T09:51:57;-1.40;99.90
30399;DHT22;17195;50.838;7.214;2022-12-18T09:54:32;-1.30;99.90
30399;DHT22;17195;50.838;7.214;2022-12-18T09:56:58;-1.30;99.90
30399;DHT22;17195;50.838;7.214;2022-12-18T09:59:47;-1.20;99.90
30399;DHT22;17195;50.838;7.214;2022-12-18T10:02:18;-1.00;99.90
30399;DHT22;17195;50.838;7.214;2022-12-18T10:07:59;-0.70;99.90
30399;DHT22;17195;50.838;7.214;2022-12-18T10:15:58;-0.40;99.90
30399;DHT22;17195;50.838;7.214;2022-12-18T10:18:35;-0.30;99.90
30399;DHT22;17195;50.838;7.214;2022-12-18T10:21:21;-0.20;99.90
30399;DHT22;17195;50.838;7.214;2022-12-18T10:24:00;-0.10;99.90
30399;DHT22;17195;50.838;7.214;2022-12-18T10:26:28;-0.10;99.90
30399;DHT22;17195;50.838;7.214;2022-12-18T10:28:54;0.00;99.90
30399;DHT22;17195;50.838;7.214;2022-12-18T10:31:23;0.10;99.90
30399;DHT22;17195;50.838;7.214;2022-12-18T10:33:49;0.10;99.90
30399;DHT22;17195;50.838;7.214;2022-12-18T10:36:15;0.20;99.90
30399;DHT22;17195;50.838;7.214;2022-12-18T10:38:41;0.20;99.90
30399;DHT22;17195;50.838;7.214;2022-12-18T10:41:24;0.20;99.90
30399;DHT22;17195;50.838;7.214;2022-12-18T10:44:20;0.30;99.90
30399;DHT22;17195;50.838;7.214;2022-12-18T10:46:55;0.40;99.90
30399;DHT22;17195;50.838;7.214;2022-12-18T10:49:27;0.40;99.90
30399;DHT22;17195;50.838;7.214;2022-12-18T10:52:18;0.50;99.90
30399;DHT22;17195;50.838;7.214;2022-12-18T10:57:37;0.60;99.90
30399;DHT22;17195;50.838;7.214;2022-12-18T11:02:47;0.80;99.90
30399;DHT22;17195;50.838;7.214;2022-12-18T11:07:51;1.00;99.90
30399;DHT22;17195;50.838;7.214;2022-12-18T11:10:19;1.00;99.90
30399;DHT22;17195;50.838;7.214;2022-12-18T11:12:46;1.10;99.90
30399;DHT22;17195;50.838;7.214;2022-12-18T11:15:21;1.10;99.90
30399;DHT22;17195;50.838;7.214;2022-12-18T11:17:50;1.10;99.90
30399;DHT22;17195;50.838;7.214;2022-12-18T11:20:42;1.20;99.90
30399;DHT22;17195;50.838;7.214;2022-12-18T11:23:13;1.00;99.90
30399;DHT22;17195;50.838;7.214;2022-12-18T11:25:39;1.10;99.90
30399;DHT22;17195;50.838;7.214;2022-12-18T11:28:28;1.10;99.90
30399;DHT22;17195;50.838;7.214;2022-12-18T11:31:18;1.10;99.90
30399;DHT22;17195;50.838;7.214;2022-12-18T11:33:58;1.10;99.90
30399;DHT22;17195;50.838;7.214;2022-12-18T11:36:28;1.10;99.90
30399;DHT22;17195;50.838;7.214;2022-12-18T11:38:55;1.10;99.90
30399;DHT22;17195;50.838;7.214;2022-12-18T11:41:32;1.10;99.90
30399;DHT22;17195;50.838;7.214;2022-12-18T11:44:24;1.10;99.90
30399;DHT22;17195;50.838;7.214;2022-12-18T11:47:04;1.10;99.90
30399;DHT22;17195;50.838;7.214;2022-12-18T11:49:35;1.20;99.90
30399;DHT22;17195;50.838;7.214;2022-12-18T11:52:18;1.20;99.90
30399;DHT22;17195;50.838;7.214;2022-12-18T11:54:44;1.30;99.90
30399;DHT22;17195;50.838;7.214;2022-12-18T12:04:50;1.20;99.90
30399;DHT22;17195;50.838;7.214;2022-12-18T12:07:38;1.20;99.90
30399;DHT22;17195;50.838;7.214;2022-12-18T12:10:34;1.10;99.90
30399;DHT22;17195;50.838;7.214;2022-12-18T12:13:22;1.10;99.90
30399;DHT22;17195;50.838;7.214;2022-12-18T12:18:56;1.00;99.90
30399;DHT22;17195;50.838;7.214;2022-12-18T12:21:34;1.00;99.90
30399;DHT22;17195;50.838;7.214;2022-12-18T12:27:20;1.00;99.90
30399;DHT22;17195;50.838;7.214;2022-12-18T12:30:02;1.00;99.90
30399;DHT22;17195;50.838;7.214;2022-12-18T12:32:53;1.10;99.90
30399;DHT22;17195;50.838;7.214;2022-12-18T12:38:55;1.10;99.90
30399;DHT22;17195;50.838;7.214;2022-12-18T12:41:24;1.10;99.90
30399;DHT22;17195;50.838;7.214;2022-12-18T12:44:17;1.00;99.90
30399;DHT22;17195;50.838;7.214;2022-12-18T12:46:45;1.10;99.90
30399;DHT22;17195;50.838;7.214;2022-12-18T12:49:15;1.10;99.90
30399;DHT22;17195;50.838;7.214;2022-12-18T12:51:47;1.10;99.90
30399;DHT22;17195;50.838;7.214;2022-12-18T12:54:23;1.00;99.90
30399;DHT22;17195;50.838;7.214;2022-12-18T13:02:18;0.90;99.90
30399;DHT22;17195;50.838;7.214;2022-12-18T13:04:47;0.80;99.90
30399;DHT22;17195;50.838;7.214;2022-12-18T13:07:37;0.80;99.90
30399;DHT22;17195;50.838;7.214;2022-12-18T13:18:23;0.90;99.90
30399;DHT22;17195;50.838;7.214;2022-12-18T13:20:51;1.00;99.90
30399;DHT22;17195;50.838;7.214;2022-12-18T13:23:35;0.90;99.90
30399;DHT22;17195;50.838;7.214;2022-12-18T13:31:57;0.70;99.90
30399;DHT22;17195;50.838;7.214;2022-12-18T13:36:48;0.60;99.90
30399;DHT22;17195;50.838;7.214;2022-12-18T13:41:42;0.60;99.90
30399;DHT22;17195;50.838;7.214;2022-12-18T13:44:39;0.60;99.90
30399;DHT22;17195;50.838;7.214;2022-12-18T13:47:07;0.60;99.90
30399;DHT22;17195;50.838;7.214;2022-12-18T13:49:49;0.60;99.90
30399;DHT22;17195;50.838;7.214;2022-12-18T13:52:19;0.60;99.90
30399;DHT22;17195;50.838;7.214;2022-12-18T13:54:51;0.50;99.90
30399;DHT22;17195;50.838;7.214;2022-12-18T13:57:29;0.50;99.90
30399;DHT22;17195;50.838;7.214;2022-12-18T13:59:55;0.50;99.90
30399;DHT22;17195;50.838;7.214;2022-12-18T14:02:23;0.40;99.90
30399;DHT22;17195;50.838;7.214;2022-12-18T14:04:50;0.40;99.90
30399;DHT22;17195;50.838;7.214;2022-12-18T14:07:24;0.40;99.90
30399;DHT22;17195;50.838;7.214;2022-12-18T14:09:53;0.40;99.90
30399;DHT22;17195;50.838;7.214;2022-12-18T14:12:24;0.40;99.90
30399;DHT22;17195;50.838;7.214;2022-12-18T14:15:24;0.30;99.90
30399;DHT22;17195;50.838;7.214;2022-12-18T14:17:52;0.20;99.90
30399;DHT22;17195;50.838;7.214;2022-12-18T14:20:18;0.20;99.90
30399;DHT22;17195;50.838;7.214;2022-12-18T14:22:45;0.10;99.90
30399;DHT22;17195;50.838;7.214;2022-12-18T14:25:15;0.00;99.90
30399;DHT22;17195;50.838;7.214;2022-12-18T14:30:26;-0.10;99.90
30399;DHT22;17195;50.838;7.214;2022-12-18T14:35:36;-0.10;99.90
30399;DHT22;17195;50.838;7.214;2022-12-18T14:38:39;-0.10;99.90
30399;DHT22;17195;50.838;7.214;2022-12-18T14:41:13;-0.20;99.90
30399;DHT22;17195;50.838;7.214;2022-12-18T14:43:41;-0.20;99.90
30399;DHT22;17195;50.838;7.214;2022-12-18T14:49:17;-0.30;99.90
30399;DHT22;17195;50.838;7.214;2022-12-18T14:52:05;-0.30;99.90
30399;DHT22;17195;50.838;7.214;2022-12-18T14:54:32;-0.30;99.90
30399;DHT22;17195;50.838;7.214;2022-12-18T14:57:05;-0.40;99.90
30399;DHT22;17195;50.838;7.214;2022-12-18T14:59:31;-0.50;99.90
30399;DHT22;17195;50.838;7.214;2022-12-18T15:04:35;-0.50;99.90
30399;DHT22;17195;50.838;7.214;2022-12-18T15:09:41;-0.50;99.90
30399;DHT22;17195;50.838;7.214;2022-12-18T15:12:42;-0.50;99.90
30399;DHT22;17195;50.838;7.214;2022-12-18T15:18:23;-0.60;99.90
30399;DHT22;17195;50.838;7.214;2022-12-18T15:21:06;-0.60;99.90
30399;DHT22;17195;50.838;7.214;2022-12-18T15:26:12;-0.60;99.90
30399;DHT22;17195;50.838;7.214;2022-12-18T15:28:53;-0.60;99.90
30399;DHT22;17195;50.838;7.214;2022-12-18T15:36:19;-0.70;99.90
30399;DHT22;17195;50.838;7.214;2022-12-18T15:38:49;-0.80;99.90
30399;DHT22;17195;50.838;7.214;2022-12-18T15:41:20;-0.80;99.90
30399;DHT22;17195;50.838;7.214;2022-12-18T15:43:50;-0.80;99.90
30399;DHT22;17195;50.838;7.214;2022-12-18T15:46:18;-0.80;99.90
30399;DHT22;17195;50.838;7.214;2022-12-18T15:48:46;-0.90;99.90
30399;DHT22;17195;50.838;7.214;2022-12-18T15:51:18;-0.90;99.90
30399;DHT22;17195;50.838;7.214;2022-12-18T15:53:46;-1.00;99.90
30399;DHT22;17195;50.838;7.214;2022-12-18T15:56:12;-0.90;99.90
30399;DHT22;17195;50.838;7.214;2022-12-18T15:58:57;-0.90;99.90
30399;DHT22;17195;50.838;7.214;2022-12-18T16:01:25;-1.00;99.90
30399;DHT22;17195;50.838;7.214;2022-12-18T16:03:51;-1.10;99.90
30399;DHT22;17195;50.838;7.214;2022-12-18T16:06:17;-1.10;99.90
30399;DHT22;17195;50.838;7.214;2022-12-18T16:08:42;-1.00;99.90
30399;DHT22;17195;50.838;7.214;2022-12-18T16:13:45;-1.00;99.90
30399;DHT22;17195;50.838;7.214;2022-12-18T16:16:10;-1.10;99.90
30399;DHT22;17195;50.838;7.214;2022-12-18T16:18:37;-1.10;99.90
30399;DHT22;17195;50.838;7.214;2022-12-18T16:21:03;-1.10;99.90
30399;DHT22;17195;50.838;7.214;2022-12-18T16:23:28;-1.20;99.90
30399;DHT22;17195;50.838;7.214;2022-12-18T16:25:54;-1.20;99.90
30399;DHT22;17195;50.838;7.214;2022-12-18T16:28:19;-1.20;99.90
30399;DHT22;17195;50.838;7.214;2022-12-18T16:30:45;-1.20;99.90
30399;DHT22;17195;50.838;7.214;2022-12-18T16:33:11;-1.20;99.90
30399;DHT22;17195;50.838;7.214;2022-12-18T16:35:37;-1.20;99.90
30399;DHT22;17195;50.838;7.214;2022-12-18T16:38:02;-1.20;99.90
30399;DHT22;17195;50.838;7.214;2022-12-18T16:40:31;-1.20;99.90
30399;DHT22;17195;50.838;7.214;2022-12-18T16:42:57;-1.20;99.90
30399;DHT22;17195;50.838;7.214;2022-12-18T16:45:22;-1.10;99.90
30399;DHT22;17195;50.838;7.214;2022-12-18T16:47:48;-1.10;99.90
30399;DHT22;17195;50.838;7.214;2022-12-18T16:50:14;-1.10;99.90
30399;DHT22;17195;50.838;7.214;2022-12-18T16:52:40;-1.20;99.90
30399;DHT22;17195;50.838;7.214;2022-12-18T16:55:06;-1.20;99.90
30399;DHT22;17195;50.838;7.214;2022-12-18T16:57:32;-1.10;99.90
30399;DHT22;17195;50.838;7.214;2022-12-18T16:59:58;-1.20;99.90
30399;DHT22;17195;50.838;7.214;2022-12-18T17:02:25;-1.20;99.90
30399;DHT22;17195;50.838;7.214;2022-12-18T17:04:55;-1.20;99.90
30399;DHT22;17195;50.838;7.214;2022-12-18T17:07:21;-1.20;99.90
30399;DHT22;17195;50.838;7.214;2022-12-18T17:09:47;-1.20;99.90
30399;DHT22;17195;50.838;7.214;2022-12-18T17:12:14;-1.20;99.90
30399;DHT22;17195;50.838;7.214;2022-12-18T17:14:40;-1.20;99.90
30399;DHT22;17195;50.838;7.214;2022-12-18T17:17:05;-1.20;99.90
30399;DHT22;17195;50.838;7.214;2022-12-18T17:19:32;-1.20;99.90
30399;DHT22;17195;50.838;7.214;2022-12-18T17:21:58;-1.20;99.90
30399;DHT22;17195;50.838;7.214;2022-12-18T17:24:23;-1.20;99.90
30399;DHT22;17195;50.838;7.214;2022-12-18T17:26:49;-1.20;99.90
30399;DHT22;17195;50.838;7.214;2022-12-18T17:29:18;-1.10;99.90
30399;DHT22;17195;50.838;7.214;2022-12-18T17:31:45;-1.10;99.90
30399;DHT22;17195;50.838;7.214;2022-12-18T17:34:11;-1.10;99.90
30399;DHT22;17195;50.838;7.214;2022-12-18T17:36:37;-1.10;99.90
30399;DHT22;17195;50.838;7.214;2022-12-18T17:39:04;-1.10;99.90
30399;DHT22;17195;50.838;7.214;2022-12-18T17:41:30;-1.20;99.90
30399;DHT22;17195;50.838;7.214;2022-12-18T17:44:04;-1.20;99.90
30399;DHT22;17195;50.838;7.214;2022-12-18T17:46:31;-1.10;99.90
30399;DHT22;17195;50.838;7.214;2022-12-18T17:48:59;-1.20;99.90
30399;DHT22;17195;50.838;7.214;2022-12-18T17:51:25;-1.20;99.90
30399;DHT22;17195;50.838;7.214;2022-12-18T17:53:51;-1.20;99.90
30399;DHT22;17195;50.838;7.214;2022-12-18T17:56:18;-1.20;99.90